Time;durP1;ratioP1;P1;durP2;ratioP2;P2;SDS_P1;SDS_P2;PMS_P1;PMS_P2;Temp;Humidity;BMP_temperature;BMP_pressure;BME280_temperature;BME280_humidity;BME280_pressure;Samples;Min_cycle;Max_cycle;Signal;HPM_P1;HPM_P2
2024/02/08 00:00:47;;;;;;;1.52;0.80;;;11.20;99.90;;;;;;10032103;28;20052;-71
2024/02/08 00:05:37;;;;;;;3.35;0.70;;;11.20;99.90;;;;;;10057689;28;20033;-72
2024/02/08 00:10:28;;;;;;;0.70;0.68;;;11.20;99.90;;;;;;10043839;28;20077;-71
2024/02/08 00:15:19;;;;;;;1.10;0.50;;;11.20;99.90;;;;;;10039720;28;20054;-71
2024/02/08 00:20:10;;;;;;;0.73;0.45;;;11.20;99.90;;;;;;10033639;28;20026;-71
2024/02/08 00:25:01;;;;;;;0.80;0.50;;;11.20;99.90;;;;;;10014745;28;20504;-72
2024/02/08 00:29:51;;;;;;;1.13;0.80;;;11.20;99.90;;;;;;10068428;28;20029;-71
2024/02/08 00:34:42;;;;;;;1.00;0.70;;;11.20;99.90;;;;;;10047946;28;20046;-71
2024/02/08 00:39:34;;;;;;;1.67;1.17;;;11.10;99.90;;;;;;10041027;28;20034;-71
2024/02/08 00:44:27;;;;;;;1.05;0.68;;;11.20;99.90;;;;;;10035546;28;20496;-73
2024/02/08 00:49:18;;;;;;;1.33;0.85;;;11.20;99.90;;;;;;10042209;28;20034;-72
2024/02/08 00:54:09;;;;;;;2.65;0.70;;;11.20;99.90;;;;;;10031647;28;20579;-71
2024/02/08 00:59:00;;;;;;;1.08;0.80;;;11.20;99.90;;;;;;10046995;28;20561;-71
2024/02/08 01:03:51;;;;;;;1.25;1.15;;;11.20;99.90;;;;;;10060217;28;20032;-73
2024/02/08 01:08:41;;;;;;;1.63;0.90;;;11.20;99.90;;;;;;10038487;28;20061;-72
2024/02/08 01:13:32;;;;;;;2.50;0.60;;;11.20;99.90;;;;;;10033735;28;20537;-71
2024/02/08 01:18:24;;;;;;;1.25;0.70;;;11.30;99.90;;;;;;10023972;28;20038;-71
2024/02/08 01:23:17;;;;;;;1.00;0.52;;;11.20;99.90;;;;;;10044169;28;20506;-71
2024/02/08 01:28:08;;;;;;;1.08;0.60;;;11.30;99.90;;;;;;10041286;28;20324;-70
2024/02/08 01:32:59;;;;;;;1.75;0.82;;;11.30;99.90;;;;;;10044096;28;20038;-73
2024/02/08 01:37:49;;;;;;;1.45;0.70;;;11.20;99.90;;;;;;10028757;28;20033;-72
2024/02/08 01:42:40;;;;;;;0.30;0.30;;;11.30;99.90;;;;;;10025019;28;20487;-70
2024/02/08 01:47:31;;;;;;;1.08;0.50;;;11.30;99.90;;;;;;10030018;28;20041;-71
2024/02/08 01:52:22;;;;;;;1.67;0.75;;;11.30;99.90;;;;;;10039174;28;20022;-70
2024/02/08 01:57:13;;;;;;;0.68;0.35;;;11.30;99.90;;;;;;10041699;28;20040;-70
2024/02/08 02:02:07;;;;;;;0.68;0.30;;;11.30;99.90;;;;;;10043260;28;20403;-71
2024/02/08 02:07:00;;;;;;;0.20;0.20;;;11.30;99.90;;;;;;10036336;28;20049;-73
2024/02/08 02:12:02;;;;;;;0.80;0.60;;;11.30;99.90;;;;;;10042114;28;20030;-70
2024/02/08 02:17:03;;;;;;;0.80;0.43;;;11.30;99.90;;;;;;10023544;28;20046;-71
2024/02/08 02:21:54;;;;;;;2.22;0.50;;;11.30;99.90;;;;;;10033656;28;20722;-70
2024/02/08 02:26:45;;;;;;;1.48;0.60;;;11.30;99.90;;;;;;10032154;28;20045;-70
2024/02/08 02:31:37;;;;;;;0.75;0.32;;;11.30;99.90;;;;;;10029259;28;20026;-70
2024/02/08 02:36:27;;;;;;;0.50;0.50;;;11.30;99.90;;;;;;10024077;28;20033;-71
2024/02/08 02:41:18;;;;;;;1.25;0.57;;;11.30;99.90;;;;;;10020498;28;20168;-71
2024/02/08 02:46:10;;;;;;;0.88;0.45;;;11.30;99.90;;;;;;10022688;28;20041;-71
2024/02/08 02:51:01;;;;;;;0.70;0.45;;;11.40;99.90;;;;;;10026596;28;20445;-71
2024/02/08 02:55:58;;;;;;;1.10;0.57;;;11.40;99.90;;;;;;10027254;28;20026;-69
2024/02/08 03:00:59;;;;;;;0.70;0.40;;;11.40;99.90;;;;;;10023305;28;20034;-71
2024/02/08 03:05:50;;;;;;;0.38;0.30;;;11.40;99.90;;;;;;10036297;28;20111;-72
2024/02/08 03:10:43;;;;;;;0.60;0.50;;;11.40;99.90;;;;;;10038950;28;20118;-71
2024/02/08 03:15:36;;;;;;;1.08;0.40;;;11.40;99.90;;;;;;10022213;28;20704;-71
2024/02/08 03:20:30;;;;;;;0.68;0.60;;;11.40;99.90;;;;;;10028277;28;20022;-72
2024/02/08 03:25:21;;;;;;;0.47;0.22;;;11.40;99.90;;;;;;10025754;28;20053;-71
2024/02/08 03:30:34;;;;;;;1.10;0.63;;;11.30;99.90;;;;;;10025855;28;20021;-71
2024/02/08 03:35:25;;;;;;;0.47;0.40;;;11.40;99.90;;;;;;10037963;28;20046;-71
2024/02/08 03:40:20;;;;;;;0.50;0.40;;;11.40;99.90;;;;;;10024816;28;20030;-71
2024/02/08 03:45:13;;;;;;;0.85;0.40;;;11.30;99.90;;;;;;10031168;28;20033;-71
2024/02/08 03:50:04;;;;;;;0.47;0.20;;;11.30;99.90;;;;;;10025978;28;20030;-72
2024/02/08 03:54:55;;;;;;;1.40;0.50;;;11.40;99.90;;;;;;10020409;28;20049;-71
2024/02/08 03:59:45;;;;;;;0.45;0.40;;;11.40;99.90;;;;;;10031635;28;20152;-71
2024/02/08 04:04:49;;;;;;;0.43;0.30;;;11.40;99.90;;;;;;10021008;28;20129;-71
2024/02/08 04:09:48;;;;;;;0.43;0.30;;;11.40;99.90;;;;;;10035882;28;20029;-71
2024/02/08 04:55:49;;;;;;;0.50;0.28;;;11.40;99.90;;;;;;10124183;28;20074;-71
2024/02/08 05:00:45;;;;;;;0.88;0.38;;;11.40;99.90;;;;;;10127735;28;20106;-70
2024/02/08 05:05:43;;;;;;;0.57;0.40;;;11.40;99.90;;;;;;10114222;28;20049;-71
2024/02/08 05:10:34;;;;;;;1.70;0.40;;;11.40;99.90;;;;;;10100546;28;20402;-73
2024/02/08 05:15:27;;;;;;;0.20;0.20;;;11.40;99.90;;;;;;10105628;28;20021;-71
2024/02/08 05:20:17;;;;;;;0.28;0.28;;;11.30;99.90;;;;;;10103429;28;20054;-72
2024/02/08 05:25:10;;;;;;;1.60;0.40;;;11.30;99.90;;;;;;10100668;28;20100;-72
2024/02/08 05:30:01;;;;;;;0.88;0.28;;;11.30;99.90;;;;;;10101191;28;20422;-73
2024/02/08 05:34:51;;;;;;;0.80;0.40;;;11.40;99.90;;;;;;10102957;28;20032;-71
2024/02/08 05:39:43;;;;;;;0.10;0.10;;;11.30;99.90;;;;;;10100543;28;20047;-74
2024/02/08 05:44:40;;;;;;;1.05;0.45;;;11.40;99.90;;;;;;10112787;28;20044;-74
2024/02/08 05:49:30;;;;;;;1.10;0.45;;;11.40;99.90;;;;;;10098009;28;20099;-74
2024/02/08 05:54:22;;;;;;;0.65;0.40;;;11.40;99.90;;;;;;10102057;28;20413;-74
2024/02/08 05:59:17;;;;;;;0.95;0.20;;;11.50;99.90;;;;;;10098795;28;20057;-72
2024/02/08 06:04:09;;;;;;;1.13;0.35;;;11.50;99.90;;;;;;10096711;28;20116;-73
2024/02/08 06:09:08;;;;;;;0.80;0.40;;;11.50;99.90;;;;;;10098958;28;20569;-70
2024/02/08 06:13:59;;;;;;;0.90;0.50;;;11.40;99.90;;;;;;10092845;28;20413;-72
2024/02/08 06:18:49;;;;;;;0.45;0.30;;;11.50;99.90;;;;;;10094138;28;20047;-74
2024/02/08 06:23:45;;;;;;;0.80;0.35;;;11.50;99.90;;;;;;10099649;28;20036;-72
2024/02/08 06:28:46;;;;;;;0.63;0.40;;;11.50;99.90;;;;;;10096527;28;20049;-72
2024/02/08 06:34:09;;;;;;;0.70;0.40;;;11.50;99.90;;;;;;10080616;28;20083;-75
2024/02/08 06:38:54;;;;;;;0.73;0.40;;;11.50;99.90;;;;;;10096983;28;20578;-75
2024/02/08 07:40:35;;;;;;;0.32;0.30;;;11.60;99.90;;;;;;10089663;28;20052;-71
2024/02/08 07:45:28;;;;;;;0.30;0.20;;;11.60;99.90;;;;;;10071437;28;20092;-71
2024/02/08 07:50:24;;;;;;;0.75;0.40;;;11.60;99.90;;;;;;10077542;28;20309;-71
2024/02/08 07:55:20;;;;;;;0.60;0.30;;;11.60;99.90;;;;;;10093771;28;20044;-70
2024/02/08 08:00:32;;;;;;;1.38;0.30;;;11.70;99.90;;;;;;10095724;28;20021;-72
2024/02/08 08:05:23;;;;;;;0.50;0.30;;;11.60;99.90;;;;;;10078394;28;20040;-71
2024/02/08 08:10:25;;;;;;;0.60;0.22;;;11.80;99.90;;;;;;10090402;28;20032;-70
2024/02/08 08:15:16;;;;;;;0.55;0.40;;;11.70;99.90;;;;;;10085039;28;20087;-70
2024/02/08 08:20:56;;;;;;;0.38;0.22;;;11.80;99.90;;;;;;10093755;28;20078;-71
2024/02/08 08:25:59;;;;;;;0.50;0.30;;;11.80;99.90;;;;;;10097653;28;20048;-71
2024/02/08 08:30:39;;;;;;;3.22;0.30;;;11.80;99.90;;;;;;10096458;28;20029;-71
2024/02/08 08:40:38;;;;;;;0.63;0.40;;;11.90;99.90;;;;;;10097858;28;20029;-69
2024/02/08 08:45:31;;;;;;;0.25;0.17;;;11.90;99.90;;;;;;10094550;28;20044;-67
2024/02/08 08:50:30;;;;;;;0.65;0.30;;;11.90;99.90;;;;;;10095352;28;20597;-70
2024/02/08 08:55:21;;;;;;;0.52;0.30;;;12.00;99.90;;;;;;10071213;28;20033;-70
2024/02/08 09:00:19;;;;;;;0.17;0.17;;;11.90;99.90;;;;;;10082266;28;20036;-70
2024/02/08 09:05:17;;;;;;;0.80;0.40;;;12.00;99.90;;;;;;10099821;28;20037;-71
2024/02/08 09:10:08;;;;;;;0.20;0.20;;;12.00;99.90;;;;;;10102302;28;20036;-68
2024/02/08 09:15:19;;;;;;;0.40;0.32;;;11.90;99.90;;;;;;10099346;28;20052;-68
2024/02/08 09:20:43;;;;;;;1.08;0.40;;;11.90;99.90;;;;;;10090758;28;20033;-68
2024/02/08 09:25:27;;;;;;;1.23;0.40;;;11.90;99.90;;;;;;10085541;28;20133;-72
2024/02/08 09:30:37;;;;;;;1.02;0.47;;;11.90;99.90;;;;;;10086828;28;20016;-72
2024/02/08 09:35:30;;;;;;;1.05;0.85;;;11.90;99.90;;;;;;10084374;28;20044;-70
2024/02/08 09:41:09;;;;;;;1.48;0.47;;;11.90;99.90;;;;;;10077151;28;20025;-69
2024/02/08 09:50:35;;;;;;;0.40;0.40;;;11.90;99.90;;;;;;10094820;28;20033;-68
2024/02/08 09:55:32;;;;;;;0.60;0.40;;;11.90;99.90;;;;;;10097883;28;20024;-71
2024/02/08 10:00:35;;;;;;;0.95;0.63;;;12.00;99.90;;;;;;10094532;28;20059;-72
2024/02/08 10:10:56;;;;;;;0.52;0.40;;;12.00;99.90;;;;;;10094635;28;20136;-67
2024/02/08 10:15:54;;;;;;;1.42;0.50;;;12.00;99.90;;;;;;10088068;28;20024;-68
2024/02/08 10:20:47;;;;;;;0.80;0.60;;;12.00;99.90;;;;;;10087793;28;20071;-68
2024/02/08 10:31:07;;;;;;;0.55;0.43;;;12.10;99.90;;;;;;9939185;28;20098;-69
2024/02/08 10:36:18;;;;;;;0.43;0.28;;;12.10;99.90;;;;;;10056891;28;20457;-67
2024/02/08 10:41:11;;;;;;;0.50;0.38;;;12.20;99.90;;;;;;10094708;28;20036;-68
2024/02/08 10:46:02;;;;;;;0.88;0.75;;;12.20;99.90;;;;;;10092245;28;20132;-67
2024/02/08 10:50:53;;;;;;;1.08;0.47;;;12.20;99.90;;;;;;10094518;28;20112;-68
2024/02/08 10:55:52;;;;;;;1.73;0.60;;;12.20;99.90;;;;;;10087083;28;20062;-68
2024/02/08 11:05:48;;;;;;;0.80;0.73;;;12.20;99.90;;;;;;10091555;28;20075;-69
2024/02/08 11:10:42;;;;;;;0.90;0.65;;;12.30;99.90;;;;;;10093133;28;20094;-69
2024/02/08 11:15:38;;;;;;;1.58;0.63;;;12.30;99.90;;;;;;10076983;28;20591;-69
2024/02/08 11:20:42;;;;;;;1.13;0.70;;;12.30;99.90;;;;;;10093895;28;20021;-68
2024/02/08 11:25:38;;;;;;;1.67;0.63;;;12.30;99.90;;;;;;10087154;28;20048;-67
2024/02/08 11:30:33;;;;;;;2.78;0.88;;;12.40;99.90;;;;;;10093439;28;20102;-68
2024/02/08 11:35:31;;;;;;;1.13;0.73;;;12.40;99.90;;;;;;10071559;28;20116;-68
2024/02/08 11:40:35;;;;;;;2.78;1.10;;;12.50;99.90;;;;;;10091866;28;20063;-68
2024/02/08 11:45:31;;;;;;;1.30;0.70;;;12.50;99.90;;;;;;10091085;28;20099;-67
2024/02/08 11:50:24;;;;;;;1.75;0.85;;;12.50;99.90;;;;;;10076141;28;20102;-69
2024/02/08 11:55:15;;;;;;;4.90;1.48;;;12.50;99.90;;;;;;10073029;28;20029;-69
2024/02/08 12:00:16;;;;;;;2.83;0.88;;;12.60;99.90;;;;;;10096283;28;20574;-69
2024/02/08 12:05:07;;;;;;;1.50;0.95;;;12.70;99.90;;;;;;10099919;28;20059;-68
2024/02/08 12:09:59;;;;;;;3.45;1.10;;;12.70;99.90;;;;;;10099930;28;20029;-68
2024/02/08 12:14:52;;;;;;;3.53;1.73;;;12.80;99.90;;;;;;10102118;28;20040;-68
2024/02/08 12:19:44;;;;;;;3.17;0.95;;;12.80;99.90;;;;;;10102178;28;20029;-68
2024/02/08 12:24:34;;;;;;;2.03;0.90;;;12.80;99.90;;;;;;10113069;22;20080;-66
2024/02/08 12:29:26;;;;;;;2.15;1.08;;;12.80;99.90;;;;;;10087467;28;20117;-67
2024/02/08 12:34:24;;;;;;;1.55;0.77;;;12.90;99.90;;;;;;10090869;28;20040;-65
2024/02/08 12:39:20;;;;;;;3.33;1.45;;;12.90;99.90;;;;;;10083983;28;20581;-65
2024/02/08 12:44:11;;;;;;;;;;;12.90;99.90;;;;;;10100464;28;20027;-66
2024/02/08 12:49:01;;;;;;;2.45;0.80;;;12.90;99.90;;;;;;10100764;28;19931;-65
2024/02/08 12:54:04;;;;;;;4.43;1.13;;;12.90;99.90;;;;;;10099342;28;20033;-65
2024/02/08 12:59:03;;;;;;;1.38;0.90;;;12.80;99.90;;;;;;10085735;28;20810;-64
2024/02/08 13:03:54;;;;;;;1.90;1.13;;;12.80;99.90;;;;;;10097920;28;20049;-65
2024/02/08 13:08:46;;;;;;;5.75;1.30;;;12.90;99.90;;;;;;10092377;28;20414;-66
2024/02/08 13:13:36;;;;;;;4.57;1.52;;;12.90;99.90;;;;;;10084469;28;20053;-67
2024/02/08 13:18:31;;;;;;;4.75;1.90;;;13.00;99.90;;;;;;10095914;28;20056;-65
2024/02/08 13:23:21;;;;;;;2.33;1.13;;;13.00;99.90;;;;;;10103803;28;20044;-65
2024/02/08 13:28:12;;;;;;;5.68;1.50;;;13.00;99.90;;;;;;10102064;28;20509;-65
2024/02/08 13:33:05;;;;;;;5.47;1.90;;;13.10;99.90;;;;;;10100425;28;20671;-64
2024/02/08 13:38:00;;;;;;;11.20;2.33;;;13.20;99.90;;;;;;10102753;28;20021;-67
2024/02/08 13:42:57;;;;;;;4.40;1.45;;;13.20;99.90;;;;;;10092223;28;20114;-65
2024/02/08 13:47:54;;;;;;;6.68;2.70;;;13.30;99.90;;;;;;10078093;28;20035;-66
2024/02/08 13:52:48;;;;;;;4.72;1.95;;;13.40;99.90;;;;;;10094304;28;20036;-65
2024/02/08 13:57:39;;;;;;;2.92;1.52;;;13.40;99.90;;;;;;10094978;28;20112;-65
2024/02/08 14:02:32;;;;;;;3.28;1.10;;;13.40;99.90;;;;;;10087857;28;20031;-65
2024/02/08 14:07:28;;;;;;;5.63;1.73;;;13.40;99.90;;;;;;10094592;28;20056;-65
2024/02/08 14:12:25;;;;;;;5.28;1.70;;;13.50;99.90;;;;;;10096607;28;20029;-66
2024/02/08 14:17:20;;;;;;;6.35;1.25;;;13.50;99.90;;;;;;10097370;28;20418;-65
2024/02/08 14:22:11;;;;;;;2.78;1.77;;;13.50;99.90;;;;;;10089014;28;20037;-66
2024/02/08 14:27:06;;;;;;;4.70;2.40;;;13.50;99.90;;;;;;10089417;28;20088;-64
2024/02/08 14:31:57;;;;;;;4.68;2.63;;;13.50;99.90;;;;;;10089847;28;20083;-65
2024/02/08 14:36:48;;;;;;;3.47;1.42;;;13.50;99.90;;;;;;10097326;28;20098;-66
2024/02/08 14:41:42;;;;;;;6.60;1.95;;;13.60;99.90;;;;;;10091538;28;21199;-66
2024/02/08 14:46:34;;;;;;;3.10;1.30;;;13.60;99.90;;;;;;10094219;28;20140;-65
2024/02/08 14:56:19;;;;;;;7.95;1.88;;;13.60;99.90;;;;;;10096528;28;20056;-67
2024/02/08 15:01:11;;;;;;;9.38;1.73;;;13.50;99.90;;;;;;10095224;28;20025;-66
2024/02/08 15:06:05;;;;;;;13.25;3.35;;;13.50;99.90;;;;;;10088510;28;20663;-65
2024/02/08 15:11:31;;;;;;;5.80;2.40;;;13.50;99.90;;;;;;10094578;28;20108;-65
2024/02/08 15:16:21;;;;;;;5.45;1.73;;;13.50;99.90;;;;;;10089201;28;20030;-64
2024/02/08 15:21:23;;;;;;;8.02;2.53;;;13.60;99.90;;;;;;10090715;28;20026;-64
2024/02/08 15:26:14;;;;;;;7.53;2.17;;;13.70;99.90;;;;;;10093618;28;20106;-64
2024/02/08 15:32:10;;;;;;;9.50;2.10;;;13.60;99.90;;;;;;10091984;28;20025;-64
2024/02/08 15:36:46;;;;;;;6.78;2.95;;;13.70;99.90;;;;;;10066289;28;20037;-65
2024/02/08 15:41:50;;;;;;;9.77;3.08;;;13.70;99.90;;;;;;10090244;28;20024;-65
2024/02/08 15:46:41;;;;;;;10.05;3.75;;;13.60;99.90;;;;;;10092888;28;20083;-65
2024/02/08 15:51:37;;;;;;;4.18;2.35;;;13.70;99.90;;;;;;10082586;28;20037;-65
2024/02/08 15:56:36;;;;;;;;;;;13.70;99.90;;;;;;10091612;28;20030;-65
2024/02/08 16:11:33;;;;;;;9.18;2.13;;;13.60;99.90;;;;;;10094402;28;20029;-66
2024/02/08 16:16:24;;;;;;;7.85;1.95;;;13.60;99.90;;;;;;10094445;28;20415;-67
2024/02/08 16:21:25;;;;;;;5.30;2.42;;;13.60;99.90;;;;;;10094832;28;20037;-65
2024/02/08 16:26:18;;;;;;;3.67;2.00;;;13.60;99.90;;;;;;10092724;28;20055;-65
2024/02/08 16:36:09;;;;;;;3.80;1.75;;;13.60;99.90;;;;;;10081125;28;20044;-66
2024/02/08 16:41:04;;;;;;;6.45;2.80;;;13.60;99.90;;;;;;10083456;28;20100;-67
2024/02/08 16:46:05;;;;;;;6.57;2.25;;;13.60;99.90;;;;;;10087511;28;20518;-66
2024/02/08 16:50:59;;;;;;;6.72;2.78;;;13.60;99.90;;;;;;10094487;28;20037;-66
2024/02/08 16:55:56;;;;;;;7.55;2.50;;;13.60;99.90;;;;;;10101615;28;20551;-66
2024/02/08 17:00:54;;;;;;;8.35;2.95;;;13.60;99.90;;;;;;10098714;28;20029;-65
2024/02/08 17:05:56;;;;;;;4.53;2.50;;;13.60;99.90;;;;;;10092052;28;20029;-64
2024/02/08 17:10:55;;;;;;;8.85;2.80;;;13.60;99.90;;;;;;10080807;28;20506;-65
2024/02/08 17:15:56;;;;;;;6.45;2.75;;;13.60;99.90;;;;;;10096312;28;20025;-66
2024/02/08 17:26:15;;;;;;;7.53;2.28;;;13.60;99.90;;;;;;10058578;28;20605;-67
2024/02/08 17:31:06;;;;;;;11.43;2.55;;;13.60;99.90;;;;;;10097147;28;20056;-64
2024/02/08 17:35:58;;;;;;;10.25;5.53;;;13.60;99.90;;;;;;10098687;28;20116;-65
2024/02/08 17:40:50;;;;;;;4.47;2.17;;;13.60;99.90;;;;;;10098345;28;20637;-66
2024/02/08 17:46:13;;;;;;;12.43;3.13;;;13.60;99.90;;;;;;10100231;28;20087;-66
2024/02/08 17:51:07;;;;;;;10.50;3.38;;;13.60;99.90;;;;;;10095794;28;20040;-64
2024/02/08 17:56:06;;;;;;;9.05;3.05;;;13.60;99.90;;;;;;10095914;28;20029;-65
2024/02/08 18:00:57;;;;;;;9.52;2.63;;;13.50;99.90;;;;;;10097123;28;20643;-65
2024/02/08 18:05:48;;;;;;;8.48;2.67;;;13.50;99.90;;;;;;10091986;28;20128;-65
2024/02/08 18:10:43;;;;;;;7.10;2.63;;;13.50;99.90;;;;;;10099252;28;20249;-66
2024/02/08 18:15:35;;;;;;;;;;;13.50;99.90;;;;;;10098601;28;20021;-64
2024/02/08 18:20:29;;;;;;;7.57;2.97;;;13.50;99.90;;;;;;10101120;28;20008;-65
2024/02/08 18:25:38;;;;;;;8.50;3.70;;;13.50;99.90;;;;;;10096459;28;20048;-66
2024/02/08 18:30:29;;;;;;;11.55;3.50;;;13.50;99.90;;;;;;10096438;28;20418;-68
2024/02/08 18:35:23;;;;;;;12.55;4.05;;;13.50;99.90;;;;;;10096143;28;20106;-66
2024/02/08 18:40:23;;;;;;;12.75;4.07;;;13.50;99.90;;;;;;10095854;28;20037;-67
2024/02/08 18:45:17;;;;;;;9.07;3.10;;;13.50;99.90;;;;;;10096912;28;20073;-67
2024/02/08 18:50:08;;;;;;;14.60;3.72;;;13.50;99.90;;;;;;10098139;28;20029;-67
2024/02/08 18:55:09;;;;;;;6.78;3.47;;;13.50;99.90;;;;;;10098068;28;20029;-65
2024/02/08 19:00:01;;;;;;;9.43;3.53;;;13.50;99.90;;;;;;10099163;28;20494;-66
2024/02/08 19:04:56;;;;;;;10.40;4.07;;;13.50;99.90;;;;;;10095217;28;20028;-67
2024/02/08 19:09:50;;;;;;;7.40;2.85;;;13.50;99.90;;;;;;10091585;28;20053;-65
2024/02/08 19:14:42;;;;;;;10.20;3.67;;;13.50;99.90;;;;;;10095924;28;20029;-66
2024/02/08 19:19:34;;;;;;;10.45;3.97;;;13.50;99.90;;;;;;10101428;28;20032;-66
2024/02/08 19:24:27;;;;;;;14.85;4.50;;;13.50;99.90;;;;;;10089632;28;20049;-67
2024/02/08 19:29:24;;;;;;;6.75;3.28;;;13.50;99.90;;;;;;10099788;28;20094;-67
2024/02/08 19:34:17;;;;;;;9.57;3.58;;;13.50;99.90;;;;;;10097624;28;20029;-64
2024/02/08 19:39:36;;;;;;;11.88;3.60;;;13.50;99.90;;;;;;10097548;28;20041;-65
2024/02/08 19:44:27;;;;;;;6.20;2.60;;;13.50;99.90;;;;;;10094674;28;20025;-66
2024/02/08 19:49:17;;;;;;;9.40;2.83;;;13.50;99.90;;;;;;10098250;28;20102;-66
2024/02/08 19:54:08;;;;;;;11.32;2.90;;;13.50;99.90;;;;;;10096382;28;20063;-65
2024/02/08 19:59:01;;;;;;;8.40;3.30;;;13.50;99.90;;;;;;10096467;28;20033;-68
2024/02/08 20:03:52;;;;;;;11.35;3.22;;;13.50;99.90;;;;;;10078499;28;20531;-65
2024/02/08 20:08:45;;;;;;;9.68;3.28;;;13.50;99.90;;;;;;10086765;28;20048;-66
2024/02/08 20:13:36;;;;;;;9.05;3.65;;;13.50;99.90;;;;;;10080983;28;20033;-65
2024/02/08 20:18:26;;;;;;;8.70;3.17;;;13.50;99.90;;;;;;10086733;28;20024;-65
2024/02/08 20:23:31;;;;;;;10.80;3.97;;;13.50;99.90;;;;;;10091573;28;20025;-70
2024/02/08 20:28:22;;;;;;;14.23;3.90;;;13.60;99.90;;;;;;10088012;28;20075;-70
2024/02/08 20:33:13;;;;;;;6.63;3.80;;;13.60;99.90;;;;;;10090429;28;20365;-69
2024/02/08 20:38:05;;;;;;;7.07;3.00;;;13.50;99.90;;;;;;10083868;28;20048;-68
2024/02/08 20:42:58;;;;;;;11.00;3.72;;;13.50;99.90;;;;;;10092451;28;20031;-70
2024/02/08 20:47:52;;;;;;;11.57;3.53;;;13.50;99.90;;;;;;10097076;28;20683;-69
2024/02/08 20:52:42;;;;;;;7.30;4.28;;;13.50;99.90;;;;;;10093326;28;20032;-69
2024/02/08 20:57:34;;;;;;;6.50;2.83;;;13.50;99.90;;;;;;10096394;28;20028;-69
2024/02/08 21:02:25;;;;;;;8.27;3.40;;;13.40;99.90;;;;;;10089776;28;20098;-70
2024/02/08 21:07:20;;;;;;;16.40;4.35;;;13.40;99.90;;;;;;10079195;28;20580;-68
2024/02/08 21:12:12;;;;;;;10.27;4.10;;;13.40;99.90;;;;;;10099958;28;20071;-67
2024/02/08 21:17:03;;;;;;;12.93;4.13;;;13.40;99.90;;;;;;10103457;28;20632;-71
2024/02/08 21:21:53;;;;;;;6.35;3.00;;;13.30;99.90;;;;;;10101830;28;20056;-71
2024/02/08 21:26:53;;;;;;;15.88;3.97;;;13.30;99.90;;;;;;10100894;28;20114;-68
2024/02/08 21:31:47;;;;;;;11.20;3.72;;;13.30;99.90;;;;;;10097727;28;20485;-70
2024/02/08 21:36:44;;;;;;;13.88;4.60;;;13.40;99.90;;;;;;10075530;28;20128;-70
2024/02/08 21:41:41;;;;;;;13.20;4.15;;;13.40;99.90;;;;;;10051371;28;20111;-70
2024/02/08 21:46:38;;;;;;;7.97;3.72;;;13.40;99.90;;;;;;10090342;28;20063;-69
2024/02/08 21:51:29;;;;;;;11.63;3.55;;;13.30;99.90;;;;;;10083328;28;20028;-70
2024/02/08 21:56:25;;;;;;;10.85;3.85;;;13.40;99.90;;;;;;10082922;28;20389;-68
2024/02/08 22:01:28;;;;;;;11.35;3.50;;;13.40;99.90;;;;;;10089285;28;20021;-70
2024/02/08 22:06:22;;;;;;;8.10;3.22;;;13.40;99.90;;;;;;10095031;28;20132;-70
2024/02/08 22:11:12;;;;;;;11.80;3.70;;;13.40;99.90;;;;;;10098778;28;20025;-70
2024/02/08 22:16:07;;;;;;;7.88;4.00;;;13.40;99.90;;;;;;10099003;28;20039;-70
2024/02/08 22:20:58;;;;;;;7.47;3.10;;;13.40;99.90;;;;;;10074597;28;20025;-70
2024/02/08 22:25:49;;;;;;;9.85;3.70;;;13.40;99.90;;;;;;10089857;28;20106;-71
2024/02/08 22:30:43;;;;;;;9.43;3.03;;;13.40;99.90;;;;;;10099330;28;20070;-69
2024/02/08 22:35:33;;;;;;;9.43;2.78;;;13.40;99.90;;;;;;10097898;28;20029;-68
2024/02/08 22:40:25;;;;;;;6.53;2.92;;;13.30;99.90;;;;;;10078564;28;20044;-68
2024/02/08 22:45:18;;;;;;;10.30;2.65;;;13.30;99.90;;;;;;10090781;28;20040;-67
2024/02/08 22:50:13;;;;;;;9.43;3.20;;;13.40;99.90;;;;;;10082465;28;20026;-67
2024/02/08 22:55:04;;;;;;;12.75;4.38;;;13.40;99.90;;;;;;10081359;28;20021;-67
2024/02/08 22:59:55;;;;;;;10.93;3.65;;;13.30;99.90;;;;;;10086049;28;20441;-67
2024/02/08 23:04:48;;;;;;;10.40;3.20;;;13.30;99.90;;;;;;10081562;28;20025;-67
2024/02/08 23:09:39;;;;;;;12.95;3.78;;;13.30;99.90;;;;;;10078581;28;20108;-68
2024/02/08 23:14:29;;;;;;;8.23;3.20;;;13.30;99.90;;;;;;10083808;28;20078;-69
2024/02/08 23:19:20;;;;;;;13.88;3.97;;;13.30;99.90;;;;;;10083002;28;20304;-68
2024/02/08 23:24:11;;;;;;;10.35;3.38;;;13.30;99.90;;;;;;10083866;28;20181;-67
2024/02/08 23:29:02;;;;;;;9.45;2.95;;;13.30;99.90;;;;;;10077812;28;20041;-67
2024/02/08 23:33:53;;;;;;;9.20;3.85;;;13.20;99.90;;;;;;10078207;28;20009;-68
2024/02/08 23:38:44;;;;;;;7.63;2.78;;;13.30;99.90;;;;;;10063521;28;20025;-67
2024/02/08 23:43:35;;;;;;;9.85;3.53;;;13.20;99.90;;;;;;10081065;28;20498;-66
2024/02/08 23:48:29;;;;;;;8.68;2.95;;;13.20;99.90;;;;;;10080952;28;20068;-68
2024/02/08 23:53:20;;;;;;;10.00;4.60;;;13.30;99.90;;;;;;10103945;28;20476;-68
2024/02/08 23:58:10;;;;;;;6.47;3.25;;;13.30;99.90;;;;;;10120489;28;20032;-67
